Time;durP1;ratioP1;P1;durP2;ratioP2;P2;SDS_P1;SDS_P2;PMS_P1;PMS_P2;Temp;Humidity;BMP_temperature;BMP_pressure;BME280_temperature;BME280_humidity;BME280_pressure;Samples;Min_cycle;Max_cycle;Signal;HPM_P1;HPM_P2
2022/11/12 00:00:58;;;;;;;60.95;35.80;;;;;;;9.87;93.14;101658.73;1785979;80;27547;-53
2022/11/12 00:03:25;;;;;;;67.45;35.50;;;;;;;9.86;93.14;101661.99;1786082;80;25620;-54
2022/11/12 00:05:52;;;;;;;60.00;35.33;;;;;;;9.86;93.08;101661.99;1787634;80;25544;-50
2022/11/12 00:08:18;;;;;;;55.30;31.45;;;;;;;9.86;93.13;101655.23;1787539;80;25579;-51
2022/11/12 00:10:45;;;;;;;55.40;33.15;;;;;;;9.88;93.15;101659.02;1787662;80;25445;-55
2022/11/12 00:13:13;;;;;;;44.58;28.17;;;;;;;9.87;93.17;101664.14;1787649;80;27500;-53
2022/11/12 00:15:39;;;;;;;46.85;28.55;;;;;;;9.87;93.21;101663.59;1787502;80;25475;-53
2022/11/12 00:18:06;;;;;;;48.73;29.18;;;;;;;9.88;93.13;101667.13;1787635;80;25398;-53
2022/11/12 00:20:33;;;;;;;47.38;27.02;;;;;;;9.88;93.12;101664.42;1787580;80;25533;-55
2022/11/12 00:22:59;;;;;;;39.00;23.38;;;;;;;9.88;93.11;101670.63;1787649;80;25431;-53
2022/11/12 00:25:25;;;;;;;36.25;24.27;;;;;;;9.88;93.16;101665.78;1787592;80;27476;-54
2022/11/12 00:27:51;;;;;;;47.23;29.70;;;;;;;9.86;93.09;101664.69;1787488;80;25883;-55
2022/11/12 00:30:17;;;;;;;60.80;34.80;;;;;;;9.87;93.14;101669.00;1787596;80;25580;-55
2022/11/12 00:32:44;;;;;;;51.73;31.70;;;;;;;9.87;93.21;101674.95;1787506;80;25576;-53
2022/11/12 00:35:11;;;;;;;50.78;27.32;;;;;;;9.86;93.15;101678.20;1787684;80;25540;-53
2022/11/12 00:37:37;;;;;;;50.38;30.62;;;;;;;9.87;93.17;101673.60;1787771;80;27478;-53
2022/11/12 00:40:06;;;;;;;54.93;31.25;;;;;;;9.86;93.18;101672.80;1787684;80;25562;-56
2022/11/12 00:42:32;;;;;;;53.48;31.52;;;;;;;9.86;93.13;101673.35;1787892;80;25549;-54
2022/11/12 00:44:58;;;;;;;51.83;32.48;;;;;;;9.86;93.11;101671.45;1787706;80;34658;-54
2022/11/12 00:47:24;;;;;;;48.87;28.15;;;;;;;9.86;93.16;101679.56;1787754;80;25547;-57
2022/11/12 00:49:50;;;;;;;42.38;26.20;;;;;;;9.86;93.19;101678.20;1787673;80;29627;-53
2022/11/12 00:52:16;;;;;;;32.45;20.65;;;;;;;9.87;93.14;101674.95;1787743;80;25590;-53
2022/11/12 00:54:43;;;;;;;36.42;23.35;;;;;;;9.86;93.05;101663.34;1787723;80;25392;-53
2022/11/12 00:57:09;;;;;;;33.95;21.02;;;;;;;9.86;93.06;101664.69;1787663;80;27697;-54
2022/11/12 00:59:35;;;;;;;38.08;24.25;;;;;;;9.86;93.08;101669.30;1787642;80;25388;-53
2022/11/12 01:02:02;;;;;;;37.85;24.35;;;;;;;9.87;93.09;101664.14;1787744;80;27467;-52
2022/11/12 01:04:28;;;;;;;33.67;20.52;;;;;;;9.87;93.09;101664.14;1787662;80;25596;-55
2022/11/12 01:06:54;;;;;;;33.20;20.02;;;;;;;9.88;93.07;101672.53;1787703;80;25370;-53
2022/11/12 01:09:20;;;;;;;32.05;19.62;;;;;;;9.87;93.04;101669.00;1787635;80;25488;-53
2022/11/12 01:11:47;;;;;;;33.75;20.55;;;;;;;9.89;93.01;101667.38;1787727;80;32751;-53
2022/11/12 01:14:13;;;;;;;33.98;17.98;;;;;;;9.89;93.04;101666.03;1787821;80;27402;-53
2022/11/12 01:16:41;;;;;;;34.35;21.73;;;;;;;9.89;93.04;101666.03;1787712;80;25550;-53
2022/11/12 01:19:12;;;;;;;37.35;22.77;;;;;;;9.89;93.06;101664.67;1787694;80;25347;-51
2022/11/12 01:21:43;;;;;;;25.62;16.42;;;;;;;9.89;92.99;101661.45;1787696;80;25571;-53
2022/11/12 01:24:11;;;;;;;32.95;19.37;;;;;;;9.89;93.00;101662.80;1787795;80;25527;-55
2022/11/12 01:26:38;;;;;;;37.45;18.42;;;;;;;9.90;92.97;101660.91;1787728;80;28215;-51
2022/11/12 01:29:05;;;;;;;24.67;15.08;;;;;;;9.90;92.93;101663.61;1787530;80;25438;-50
2022/11/12 01:31:35;;;;;;;31.95;17.70;;;;;;;9.90;92.90;101664.96;1787721;80;25414;-51
2022/11/12 01:34:06;;;;;;;30.35;18.32;;;;;;;9.89;92.92;101660.11;1787719;80;25525;-51
2022/11/12 01:36:36;;;;;;;29.05;17.17;;;;;;;9.90;92.89;101666.31;1787717;80;25588;-52
2022/11/12 01:39:06;;;;;;;47.43;25.25;;;;;;;9.89;92.89;101667.38;1787754;80;27608;-52
2022/11/12 01:41:37;;;;;;;45.15;21.70;;;;;;;9.90;92.90;101667.66;1787597;80;25337;-52
2022/11/12 01:44:18;;;;;;;34.05;18.67;;;;;;;9.89;92.91;101664.16;1787810;80;25455;-52
2022/11/12 01:46:59;;;;;;;36.70;18.92;;;;;;;9.90;92.95;101668.47;1786974;80;25480;-52
2022/11/12 01:49:34;;;;;;;48.40;26.05;;;;;;;9.90;92.95;101663.61;1787690;80;25398;-52
2022/11/12 01:52:05;;;;;;;44.40;23.95;;;;;;;9.92;92.92;101669.55;1786762;80;27490;-52
2022/11/12 01:54:32;;;;;;;33.78;17.67;;;;;;;9.90;92.95;101667.11;1785870;80;25528;-51
2022/11/12 01:56:59;;;;;;;33.67;17.65;;;;;;;9.91;92.90;101672.00;1787665;80;25332;-54
2022/11/12 01:59:31;;;;;;;39.30;21.65;;;;;;;9.91;92.89;101669.30;1786494;80;25476;-54
2022/11/12 02:01:57;;;;;;;39.65;20.90;;;;;;;9.91;92.88;101671.45;1765233;81;25444;-54
2022/11/12 02:04:26;;;;;;;35.10;19.50;;;;;;;9.91;92.85;101667.39;1765124;81;27538;-53
2022/11/12 02:06:55;;;;;;;39.65;21.73;;;;;;;9.93;92.88;101665.78;1765066;81;25736;-52
2022/11/12 02:09:21;;;;;;;35.17;17.53;;;;;;;9.93;92.84;101664.42;1765470;81;25405;-52
2022/11/12 02:11:48;;;;;;;34.90;18.35;;;;;;;9.93;92.83;101662.24;1765141;81;25532;-53
2022/11/12 02:14:14;;;;;;;23.50;15.65;;;;;;;9.93;92.76;101663.59;1765155;81;25388;-53
2022/11/12 02:16:46;;;;;;;23.22;14.55;;;;;;;9.92;92.73;101664.14;1765126;81;27453;-55
2022/11/12 02:19:15;;;;;;;29.32;17.52;;;;;;;9.94;92.74;101672.78;1765093;81;25394;-53
2022/11/12 02:21:42;;;;;;;;;;;;;;;9.94;92.76;101669.28;1767787;81;25363;-53
2022/11/12 02:24:17;;;;;;;20.88;13.68;;;;;;;9.95;92.73;101672.27;1765119;81;25524;-53
2022/11/12 02:26:50;;;;;;;24.07;14.65;;;;;;;9.93;92.76;101671.18;1765300;81;25402;-55
2022/11/12 02:29:17;;;;;;;21.33;13.22;;;;;;;9.93;92.76;101672.53;1765129;81;27458;-52
2022/11/12 02:31:43;;;;;;;25.62;13.58;;;;;;;9.93;92.67;101669.00;1765081;81;25821;-55
2022/11/12 02:34:09;;;;;;;19.40;13.00;;;;;;;9.94;92.63;101669.28;1765230;81;25566;-56
2022/11/12 02:36:35;;;;;;;21.73;12.90;;;;;;;9.94;92.61;101667.37;1765282;81;25548;-55
2022/11/12 02:39:02;;;;;;;24.43;13.65;;;;;;;9.93;92.57;101667.13;1765251;81;25443;-53
2022/11/12 02:41:28;;;;;;;27.35;13.88;;;;;;;9.90;92.53;101665.77;1765124;81;27422;-55
2022/11/12 02:43:55;;;;;;;21.57;14.30;;;;;;;9.90;92.63;101669.81;1765072;81;25646;-52
2022/11/12 02:46:22;;;;;;;22.13;13.13;;;;;;;9.88;92.59;101671.98;1765081;81;25341;-51
2022/11/12 02:48:48;;;;;;;21.52;13.70;;;;;;;9.88;92.65;101673.89;1765072;81;25467;-53
2022/11/12 02:51:14;;;;;;;21.05;13.58;;;;;;;9.88;92.70;101679.30;1765162;81;25645;-53
2022/11/12 02:53:40;;;;;;;18.90;13.50;;;;;;;9.87;92.75;101674.95;1765105;81;27648;-54
2022/11/12 02:56:07;;;;;;;23.67;14.00;;;;;;;9.87;92.83;101674.41;1765056;81;25402;-54
2022/11/12 02:58:33;;;;;;;23.83;13.68;;;;;;;9.87;92.85;101676.30;1765084;81;25533;-54
2022/11/12 03:00:59;;;;;;;25.70;13.98;;;;;;;9.87;92.82;101679.01;1764996;80;26426;-53
2022/11/12 03:03:26;;;;;;;24.05;14.47;;;;;;;9.87;92.85;101681.16;1765106;81;25526;-51
2022/11/12 03:05:59;;;;;;;28.15;15.23;;;;;;;9.86;92.80;101681.46;1765085;81;27442;-52
2022/11/12 03:08:26;;;;;;;21.90;14.28;;;;;;;9.85;92.79;101686.03;1765069;81;25428;-51
2022/11/12 03:10:53;;;;;;;22.52;15.30;;;;;;;9.84;92.84;101683.08;1765078;81;25439;-53
2022/11/12 03:13:20;;;;;;;26.17;15.60;;;;;;;9.83;92.88;101688.20;1765090;81;26195;-52
2022/11/12 03:15:47;;;;;;;33.15;15.75;;;;;;;9.83;92.96;101684.69;1765171;81;25590;-53
2022/11/12 03:18:13;;;;;;;25.35;15.72;;;;;;;9.83;92.98;101690.09;1765090;81;27548;-53
2022/11/12 03:20:40;;;;;;;24.30;16.15;;;;;;;9.81;93.04;101692.27;1765045;81;25502;-52
2022/11/12 03:23:09;;;;;;;24.92;15.05;;;;;;;9.81;93.03;101690.37;1765121;81;25540;-53
2022/11/12 03:25:36;;;;;;;;;;;;;;;9.80;93.02;101692.78;1767705;81;25617;-53
2022/11/12 03:28:09;;;;;;;28.32;16.17;;;;;;;9.78;93.07;101690.90;1765114;81;25475;-52
2022/11/12 03:30:39;;;;;;;24.05;15.38;;;;;;;9.78;93.16;101688.75;1765087;81;27505;-53
2022/11/12 03:33:07;;;;;;;25.77;15.15;;;;;;;9.77;93.21;101694.67;1765032;81;29495;-52
2022/11/12 03:35:35;;;;;;;29.37;17.50;;;;;;;9.78;93.28;101696.30;1765381;81;25375;-54
2022/11/12 03:38:03;;;;;;;32.28;17.62;;;;;;;9.77;93.27;101700.08;1765085;81;25604;-56
2022/11/12 03:40:31;;;;;;;28.02;16.97;;;;;;;9.76;93.21;101697.12;1765117;81;25392;-52
2022/11/12 03:42:58;;;;;;;26.73;16.37;;;;;;;9.75;93.23;101696.03;1765090;81;27557;-53
2022/11/12 03:45:27;;;;;;;28.17;16.57;;;;;;;9.73;93.32;101694.40;1764986;81;25843;-51
2022/11/12 03:47:57;;;;;;;29.23;17.52;;;;;;;9.75;93.37;101696.03;1765127;81;25594;-52
2022/11/12 03:50:26;;;;;;;;;;;;;;;9.72;93.41;101696.02;1767682;81;25585;-52
2022/11/12 03:52:56;;;;;;;25.52;16.35;;;;;;;9.72;93.54;101693.31;1765257;81;25612;-53
2022/11/12 03:55:26;;;;;;;28.42;17.23;;;;;;;9.72;93.58;101686.04;1765186;81;28351;-52
2022/11/12 03:57:54;;;;;;;27.58;17.10;;;;;;;9.72;93.56;101694.66;1765012;81;25544;-53
2022/11/12 04:00:23;;;;;;;28.38;16.15;;;;;;;9.72;93.54;101693.31;1768630;80;25378;-51
2022/11/12 04:02:50;;;;;;;29.85;17.95;;;;;;;9.71;93.53;101695.21;1787720;80;26150;-52
2022/11/12 04:10:55;;;;;;;26.55;16.27;;;;;;;9.69;93.46;101687.13;1787597;80;25363;-51
2022/11/12 04:13:28;;;;;;;28.20;17.48;;;;;;;9.69;93.48;101691.17;1787821;80;25352;-52
2022/11/12 04:21:55;;;;;;;27.35;16.57;;;;;;;9.64;93.44;101688.47;1787794;80;27486;-56
2022/11/12 04:27:29;;;;;;;26.37;17.10;;;;;;;9.62;93.41;101689.25;1787728;80;25564;-52
2022/11/12 04:32:41;;;;;;;27.90;18.02;;;;;;;9.61;93.36;101695.75;1722511;83;25626;-53
2022/11/12 04:35:08;;;;;;;28.17;17.55;;;;;;;9.60;93.31;101691.41;1714923;83;27539;-55
2022/11/12 04:37:45;;;;;;;27.80;17.87;;;;;;;9.60;93.33;101681.41;1715376;83;25469;-51
2022/11/12 04:45:55;;;;;;;29.95;17.67;;;;;;;9.57;93.03;101677.92;1715677;83;25574;-55
2022/11/12 04:48:24;;;;;;;30.77;17.75;;;;;;;9.55;92.90;101677.35;1715420;83;28048;-52
2022/11/12 04:51:01;;;;;;;29.55;17.42;;;;;;;9.52;92.75;101676.02;1715481;83;25959;-51
2022/11/12 04:53:29;;;;;;;29.42;18.37;;;;;;;9.50;92.68;101676.83;1715469;83;25638;-55
2022/11/12 04:55:58;;;;;;;27.95;17.55;;;;;;;9.49;92.58;101675.19;1715384;83;25516;-52
2022/11/12 04:58:24;;;;;;;30.57;17.02;;;;;;;9.50;92.69;101679.53;1715493;83;25438;-52
2022/11/12 05:00:50;;;;;;;25.50;15.98;;;;;;;9.49;92.56;101678.44;1711127;83;27504;-52
2022/11/12 05:03:17;;;;;;;26.45;17.27;;;;;;;9.47;92.54;101676.00;1676787;85;25614;-53
2022/11/12 05:05:44;;;;;;;30.70;16.93;;;;;;;9.48;92.34;101678.98;1724458;83;25604;-53
2022/11/12 05:08:10;;;;;;;25.15;17.17;;;;;;;9.46;92.28;101676.27;1737811;81;26450;-53
2022/11/12 05:10:36;;;;;;;27.58;16.80;;;;;;;9.46;92.32;101678.97;1768165;81;25555;-55
2022/11/12 05:13:03;;;;;;;30.90;18.00;;;;;;;9.46;92.33;101678.97;1768208;80;27714;-52
2022/11/12 05:15:29;;;;;;;28.87;16.07;;;;;;;9.46;92.14;101681.13;1768085;80;25530;-53
2022/11/12 05:17:55;;;;;;;29.87;16.57;;;;;;;9.45;92.02;101678.69;1768182;81;25513;-52
2022/11/12 05:20:21;;;;;;;29.35;15.83;;;;;;;9.43;91.73;101680.33;1768120;81;25573;-54
2022/11/12 05:22:47;;;;;;;28.62;17.57;;;;;;;9.43;91.74;101678.98;1768231;81;25632;-52
2022/11/12 05:25:16;;;;;;;25.55;15.78;;;;;;;9.43;91.69;101682.20;1768170;81;27448;-52
2022/11/12 05:27:42;;;;;;;30.77;16.80;;;;;;;9.42;91.64;101680.05;1767566;80;25489;-52
2022/11/12 05:30:11;;;;;;;27.02;16.50;;;;;;;9.43;91.58;101683.55;1768167;81;25538;-51
2022/11/12 05:32:37;;;;;;;27.82;17.20;;;;;;;9.41;91.45;101677.61;1768303;80;25628;-51
2022/11/12 05:35:06;;;;;;;27.93;16.77;;;;;;;9.42;91.33;101678.70;1768234;81;25544;-55
2022/11/12 05:37:32;;;;;;;31.25;17.35;;;;;;;9.42;91.15;101681.95;1768345;80;27447;-54
2022/11/12 05:39:58;;;;;;;34.10;16.93;;;;;;;9.41;90.88;101685.72;1768155;80;25367;-52
2022/11/12 05:42:25;;;;;;;24.32;16.48;;;;;;;9.40;90.91;101682.21;1768209;80;29987;-54
2022/11/12 05:44:51;;;;;;;27.75;16.12;;;;;;;9.41;90.93;101691.11;1768178;80;25534;-53
2022/11/12 05:47:17;;;;;;;27.93;16.70;;;;;;;9.41;90.87;101690.56;1768224;80;32326;-54
2022/11/12 05:49:43;;;;;;;27.75;17.42;;;;;;;9.42;90.46;101687.34;1768234;81;27485;-55
2022/11/12 05:52:09;;;;;;;34.48;18.35;;;;;;;9.38;90.34;101691.13;1768098;81;25584;-52
2022/11/12 05:54:35;;;;;;;30.10;18.67;;;;;;;9.41;90.41;101700.56;1768147;81;30057;-54
2022/11/12 05:57:02;;;;;;;28.30;17.30;;;;;;;9.41;90.46;101703.27;1768099;80;25614;-54
2022/11/12 05:59:29;;;;;;;25.27;16.10;;;;;;;9.41;90.58;101710.02;1768212;81;25438;-54
2022/11/12 06:01:55;;;;;;;29.45;17.50;;;;;;;9.41;90.46;101709.47;1779337;80;27479;-53
2022/11/12 06:04:22;;;;;;;28.12;17.73;;;;;;;9.42;90.35;101708.95;1787607;80;25394;-53
2022/11/12 06:06:48;;;;;;;27.75;18.52;;;;;;;9.41;90.27;101708.67;1787674;80;25562;-54
2022/11/12 06:09:15;;;;;;;28.47;18.92;;;;;;;9.38;89.93;101707.33;1787589;80;25547;-53
2022/11/12 06:11:41;;;;;;;34.33;19.25;;;;;;;9.36;89.97;101705.41;1787733;80;25598;-54
2022/11/12 06:14:07;;;;;;;38.67;19.42;;;;;;;9.33;89.89;101711.33;1787700;80;27460;-52
2022/11/12 06:16:33;;;;;;;28.57;18.65;;;;;;;9.32;90.05;101713.23;1787606;80;32844;-53
2022/11/12 06:19:00;;;;;;;34.73;20.97;;;;;;;9.33;90.09;101711.33;1787680;80;25624;-55
2022/11/12 06:21:26;;;;;;;36.48;19.42;;;;;;;9.31;90.09;101708.92;1787649;80;25525;-54
2022/11/12 06:23:57;;;;;;;33.48;19.45;;;;;;;9.32;90.04;101713.78;1787693;80;25574;-56
2022/11/12 06:26:26;;;;;;;32.98;19.87;;;;;;;9.31;90.13;101715.67;1787710;80;27494;-55
2022/11/12 06:28:53;;;;;;;34.08;20.23;;;;;;;9.31;90.11;101714.33;1787700;80;34696;-58
2022/11/12 06:31:21;;;;;;;34.25;21.12;;;;;;;9.30;90.03;101713.23;1787633;80;25602;-57
2022/11/12 06:33:48;;;;;;;40.00;21.68;;;;;;;9.29;89.96;101716.45;1787623;80;25474;-59
2022/11/12 06:36:18;;;;;;;33.95;21.45;;;;;;;9.29;89.89;101717.00;1787709;80;25559;-57
2022/11/12 06:38:47;;;;;;;39.20;21.60;;;;;;;9.26;89.86;101723.76;1787642;80;27493;-55
2022/11/12 06:41:14;;;;;;;36.08;21.42;;;;;;;9.24;89.63;101723.19;1787566;80;25430;-55
2022/11/12 06:43:41;;;;;;;33.30;22.20;;;;;;;9.20;89.50;101727.51;1787655;80;25526;-57
2022/11/12 06:46:16;;;;;;;41.55;22.20;;;;;;;9.18;89.66;101724.27;1787607;80;26243;-58
2022/11/12 06:48:43;;;;;;;38.25;23.10;;;;;;;9.19;89.74;101725.07;1787809;80;25613;-55
2022/11/12 06:51:17;;;;;;;38.78;22.45;;;;;;;9.18;89.64;101727.48;1787676;80;29664;-55
2022/11/12 06:53:44;;;;;;;32.93;20.25;;;;;;;9.15;89.74;101716.14;1787652;80;25604;-55
2022/11/12 06:56:16;;;;;;;37.48;20.97;;;;;;;9.13;89.19;101726.95;1787640;80;25424;-56
2022/11/12 06:58:43;;;;;;;34.63;19.90;;;;;;;9.07;89.00;101732.04;1787705;80;25561;-57
2022/11/12 07:01:13;;;;;;;47.80;21.55;;;;;;;9.04;89.12;101739.30;1787626;80;25438;-57
2022/11/12 07:03:42;;;;;;;31.40;20.62;;;;;;;9.02;89.27;101737.41;1787284;80;27484;-57
2022/11/12 07:06:12;;;;;;;34.18;21.05;;;;;;;9.01;89.47;101745.22;1786788;80;25684;-57
2022/11/12 07:08:39;;;;;;;39.45;22.13;;;;;;;9.03;89.61;101745.80;1786863;80;25699;-57
2022/11/12 07:11:07;;;;;;;42.67;24.07;;;;;;;9.00;89.33;101744.97;1786790;80;25615;-57
2022/11/12 07:13:35;;;;;;;33.90;22.07;;;;;;;8.98;89.34;101750.08;1787356;80;25690;-55
2022/11/12 07:16:04;;;;;;;47.88;25.77;;;;;;;9.00;89.61;101753.87;1787634;80;28155;-58
2022/11/12 07:18:32;;;;;;;40.20;22.32;;;;;;;9.02;89.46;101763.05;1787698;80;25597;-56
2022/11/12 07:21:07;;;;;;;34.10;21.10;;;;;;;8.98;89.14;101758.72;1787739;80;25586;-57
2022/11/12 07:23:36;;;;;;;35.55;21.45;;;;;;;8.93;89.00;101766.24;1787662;80;25506;-54
2022/11/12 07:26:07;;;;;;;39.13;23.38;;;;;;;8.91;89.05;101758.95;1787706;80;25485;-58
2022/11/12 07:28:33;;;;;;;40.60;24.85;;;;;;;8.89;88.78;101761.66;1787659;80;27611;-54
2022/11/12 07:31:04;;;;;;;41.70;24.55;;;;;;;8.83;88.70;101756.75;1787394;80;25533;-57
2022/11/12 07:33:33;;;;;;;40.20;25.77;;;;;;;8.78;88.37;101756.72;1787681;80;25540;-57
2022/11/12 07:36:07;;;;;;;41.13;24.67;;;;;;;8.72;88.41;101757.23;1787661;80;25456;-56
2022/11/12 07:38:38;;;;;;;45.05;24.40;;;;;;;8.69;88.58;101760.44;1786653;80;25618;-56
2022/11/12 07:41:12;;;;;;;36.50;24.65;;;;;;;8.69;88.68;101760.98;1787762;80;27451;-58
2022/11/12 07:43:44;;;;;;;36.90;24.15;;;;;;;8.66;88.67;101772.29;1787690;80;25205;-56
2022/11/12 07:46:20;;;;;;;38.75;24.35;;;;;;;8.64;88.65;101772.55;1787798;80;25376;-58
2022/11/12 07:48:50;;;;;;;40.83;23.60;;;;;;;8.63;88.75;101774.16;1787769;80;26135;-57
2022/11/12 07:51:22;;;;;;;38.80;22.48;;;;;;;8.63;88.79;101780.35;1787758;80;25201;-57
2022/11/12 07:53:53;;;;;;;37.93;22.70;;;;;;;8.64;88.84;101778.48;1756470;81;29650;-57
2022/11/12 07:56:24;;;;;;;40.00;22.90;;;;;;;8.64;88.75;101779.84;1756554;81;25602;-56
2022/11/12 07:58:54;;;;;;;39.95;23.00;;;;;;;8.60;88.59;101769.56;1756585;81;25471;-57
2022/11/12 08:01:40;;;;;;;36.68;23.32;;;;;;;8.59;88.62;101773.86;1756444;81;25605;-57
2022/11/12 08:04:11;;;;;;;38.60;22.35;;;;;;;8.56;88.55;101768.47;1756634;81;25147;-56
2022/11/12 08:06:38;;;;;;;38.42;22.50;;;;;;;8.55;88.76;101768.17;1756585;81;28134;-56
2022/11/12 08:09:09;;;;;;;41.50;23.47;;;;;;;8.56;88.91;101767.12;1756382;81;25613;-57
2022/11/12 08:11:41;;;;;;;41.30;23.70;;;;;;;8.53;88.81;101766.28;1756465;81;25552;-61
2022/11/12 08:14:07;;;;;;;35.95;22.98;;;;;;;8.53;88.85;101771.67;1756429;81;26248;-57
2022/11/12 08:16:33;;;;;;;39.58;23.80;;;;;;;8.51;88.75;101770.30;1756386;81;25573;-58
2022/11/12 08:19:01;;;;;;;46.28;24.77;;;;;;;8.49;88.92;101768.39;1756347;81;27553;-58
2022/11/12 08:21:29;;;;;;;39.20;23.55;;;;;;;8.50;89.00;101768.69;1756277;81;25534;-57
2022/11/12 08:23:55;;;;;;;39.23;22.90;;;;;;;8.52;89.25;101777.33;1756396;81;29610;-58
2022/11/12 08:31:33;;;;;;;49.42;26.17;;;;;;;8.52;89.40;101775.43;1771424;79;26582;-57
2022/11/12 08:34:10;;;;;;;46.70;27.37;;;;;;;8.54;89.44;101769.78;1799975;79;25511;-60
2022/11/12 08:36:33;;;;;;;50.83;27.35;;;;;;;8.54;89.43;101772.48;1733104;82;25486;-54
2022/11/12 08:39:00;;;;;;;49.38;27.67;;;;;;;8.54;89.33;101775.98;1765245;80;25560;-55
2022/11/12 08:41:26;;;;;;;47.43;27.15;;;;;;;8.54;89.64;101777.33;1765107;80;32312;-59
2022/11/12 08:43:52;;;;;;;54.03;28.30;;;;;;;8.56;89.60;101775.72;1764999;81;27495;-55
2022/11/12 08:46:18;;;;;;;45.90;29.60;;;;;;;8.58;89.78;101787.89;1764945;80;25933;-56
2022/11/12 08:48:45;;;;;;;47.60;27.93;;;;;;;8.60;89.87;101778.20;1765007;81;25425;-58
2022/11/12 08:51:11;;;;;;;48.63;27.85;;;;;;;8.62;89.78;101774.70;1764958;81;25562;-54
2022/11/12 08:53:39;;;;;;;53.10;30.30;;;;;;;8.66;89.87;101777.69;1765075;81;25562;-58
2022/11/12 08:56:07;;;;;;;52.98;31.23;;;;;;;8.67;89.88;101782.02;1765163;81;27545;-56
2022/11/12 08:58:35;;;;;;;53.87;30.75;;;;;;;8.70;90.03;101783.66;1765140;80;25765;-56
2022/11/12 09:01:08;;;;;;;50.95;31.00;;;;;;;8.73;89.91;101792.56;1765260;81;25186;-57
2022/11/12 09:03:38;;;;;;;51.30;29.70;;;;;;;8.77;89.99;101792.87;1765271;81;27642;-57
2022/11/12 09:06:08;;;;;;;52.90;31.10;;;;;;;8.79;89.89;101789.37;1765186;81;25605;-59
2022/11/12 09:08:38;;;;;;;55.83;31.97;;;;;;;8.80;89.74;101793.69;1765235;81;27621;-59
2022/11/12 09:11:07;;;;;;;55.80;31.17;;;;;;;8.81;89.46;101797.22;1765110;81;25427;-59
2022/11/12 09:13:35;;;;;;;55.28;31.15;;;;;;;8.82;89.55;101794.77;1765208;81;25440;-56
2022/11/12 09:16:07;;;;;;;53.70;30.60;;;;;;;8.83;89.54;101808.01;1741355;81;25492;-55
2022/11/12 09:18:37;;;;;;;51.77;31.62;;;;;;;8.85;89.53;101810.45;1765251;80;25547;-55
2022/11/12 09:21:10;;;;;;;55.95;32.73;;;;;;;8.86;89.53;101808.84;1764790;80;28446;-58
2022/11/12 09:23:38;;;;;;;52.60;30.60;;;;;;;8.88;89.60;101804.54;1764253;80;25724;-56
2022/11/12 09:26:06;;;;;;;54.50;32.55;;;;;;;8.90;89.45;101803.73;1765262;81;25625;-63
2022/11/12 09:28:33;;;;;;;56.92;31.77;;;;;;;8.93;89.42;101810.77;1734882;82;26423;-63
2022/11/12 09:31:02;;;;;;;48.45;29.12;;;;;;;8.93;89.29;101800.52;1748797;81;25638;-63
2022/11/12 09:33:32;;;;;;;55.05;30.23;;;;;;;8.91;88.94;101808.88;1762362;81;27534;-64
2022/11/12 09:36:05;;;;;;;49.88;28.77;;;;;;;8.89;88.95;101800.78;1762032;81;27323;-61
2022/11/12 09:38:34;;;;;;;53.85;29.07;;;;;;;8.90;88.91;101799.69;1762293;81;25389;-60
2022/11/12 09:41:17;;;;;;;49.90;30.20;;;;;;;8.89;88.99;101808.33;1762242;81;25552;-62
2022/11/12 09:43:54;;;;;;;49.93;29.98;;;;;;;8.91;89.03;101807.52;1762285;81;25705;-62
2022/11/12 09:46:46;;;;;;;49.03;28.77;;;;;;;8.90;89.02;101812.64;1761548;81;27493;-63
2022/11/12 09:49:24;;;;;;;50.08;29.65;;;;;;;8.92;88.99;101802.94;1762248;81;25538;-62
2022/11/12 09:52:03;;;;;;;51.40;29.27;;;;;;;8.91;88.94;101808.08;1762138;81;25585;-62
2022/11/12 09:54:34;;;;;;;54.25;30.23;;;;;;;8.89;88.91;101805.63;1761269;81;26150;-62
2022/11/12 09:57:02;;;;;;;48.40;29.42;;;;;;;8.91;89.10;101810.77;1761457;81;25604;-63
2022/11/12 09:59:34;;;;;;;46.90;29.52;;;;;;;8.92;89.17;101810.52;1761980;81;27511;-62
2022/11/12 10:02:22;;;;;;;51.50;30.25;;;;;;;8.93;89.33;101806.72;1762069;81;25457;-63
2022/11/12 10:05:08;;;;;;;48.63;29.12;;;;;;;8.98;89.39;101808.10;1761492;81;25673;-60
2022/11/12 10:07:52;;;;;;;49.77;30.50;;;;;;;8.99;89.02;101807.59;1729617;82;25720;-65
2022/11/12 10:10:29;;;;;;;54.55;31.48;;;;;;;8.99;89.00;101806.23;1708176;82;25806;-63
2022/11/12 10:13:13;;;;;;;53.83;31.33;;;;;;;9.01;88.95;101811.34;1731124;82;27647;-64
2022/11/12 10:19:21;;;;;;;51.50;30.52;;;;;;;9.04;88.91;101814.36;1676258;85;25627;-66
2022/11/12 10:22:22;;;;;;;55.50;30.85;;;;;;;9.04;88.83;101815.72;1676268;85;25710;-66
2022/11/12 10:24:49;;;;;;;49.90;30.02;;;;;;;9.05;88.80;101821.37;1674972;85;25805;-68
2022/11/12 10:27:24;;;;;;;54.58;32.70;;;;;;;9.03;88.83;101817.32;1675562;85;29692;-68
2022/11/12 10:30:13;;;;;;;51.63;31.40;;;;;;;9.05;88.90;101819.22;1675685;85;25839;-67
2022/11/12 10:32:45;;;;;;;54.38;29.77;;;;;;;9.05;88.90;101824.06;1672134;85;25704;-68
2022/11/12 10:35:19;;;;;;;51.50;28.85;;;;;;;9.04;88.78;101827.86;1676631;85;26161;-67
2022/11/12 10:37:58;;;;;;;50.23;28.55;;;;;;;9.05;88.55;101824.61;1676808;85;25863;-68
2022/11/12 10:40:34;;;;;;;47.70;29.80;;;;;;;9.03;88.57;101827.57;1676222;85;27551;-67
2022/11/12 10:43:18;;;;;;;48.78;29.82;;;;;;;9.04;88.64;101826.51;1677401;85;25761;-68
2022/11/12 10:45:48;;;;;;;51.75;30.50;;;;;;;9.05;88.69;101825.42;1705549;84;25516;-68
2022/11/12 10:48:30;;;;;;;51.33;30.62;;;;;;;9.05;88.63;101818.67;1706905;84;25504;-68
2022/11/12 10:51:02;;;;;;;52.48;30.20;;;;;;;9.05;88.63;101815.97;1706921;84;25497;-68
2022/11/12 10:53:37;;;;;;;51.13;29.05;;;;;;;9.06;88.52;101820.31;1729421;82;28269;-68
2022/11/12 10:56:24;;;;;;;48.08;28.25;;;;;;;9.07;88.44;101821.11;1734699;82;25613;-68
2022/11/12 10:59:23;;;;;;;45.35;28.05;;;;;;;9.05;88.33;101820.56;1704340;84;25686;-67
2022/11/12 11:01:59;;;;;;;45.52;28.67;;;;;;;9.06;88.41;101826.22;1706979;84;25707;-68
2022/11/12 11:04:36;;;;;;;47.15;28.77;;;;;;;9.01;88.14;101825.67;1706982;84;25603;-68
2022/11/12 11:07:24;;;;;;;51.77;29.50;;;;;;;8.98;88.13;101822.14;1707190;84;27500;-67
2022/11/12 11:10:01;;;;;;;52.53;29.45;;;;;;;9.00;88.29;101832.68;1706828;84;25516;-67
2022/11/12 11:12:33;;;;;;;46.83;28.65;;;;;;;8.98;88.28;101831.05;1707184;84;25587;-67
2022/11/12 11:15:22;;;;;;;46.70;27.93;;;;;;;9.00;88.41;101830.78;1683094;84;25563;-67
2022/11/12 11:17:49;;;;;;;43.63;27.07;;;;;;;8.97;88.27;101824.55;1707059;84;25445;-67
2022/11/12 11:20:27;;;;;;;42.78;26.93;;;;;;;8.95;88.39;101831.56;1706896;84;27666;-67
2022/11/12 11:23:15;;;;;;;47.30;28.15;;;;;;;8.96;88.37;101818.90;1706990;84;25668;-67
2022/11/12 11:25:44;;;;;;;48.08;26.33;;;;;;;8.97;88.58;101821.85;1706940;84;25638;-67
2022/11/12 11:28:34;;;;;;;43.90;25.37;;;;;;;8.98;88.55;101826.99;1706955;84;25638;-68
2022/11/12 11:31:27;;;;;;;45.45;25.95;;;;;;;8.98;88.50;101813.50;1704723;84;25629;-66
2022/11/12 11:34:23;;;;;;;41.75;24.43;;;;;;;9.00;88.46;101819.19;1695817;82;27503;-67
2022/11/12 11:37:01;;;;;;;50.85;26.62;;;;;;;9.02;88.47;101819.73;1744359;82;25374;-67
2022/11/12 11:39:51;;;;;;;50.20;27.30;;;;;;;9.00;88.35;101825.39;1744465;81;25552;-67
2022/11/12 11:42:35;;;;;;;46.98;27.58;;;;;;;9.01;88.46;101826.19;1744400;81;25488;-66
2022/11/12 11:45:12;;;;;;;41.58;26.77;;;;;;;9.02;88.49;101828.63;1744633;82;25588;-66
2022/11/12 11:47:59;;;;;;;43.28;26.70;;;;;;;9.01;88.29;101832.94;1744612;82;27469;-67
2022/11/12 11:51:00;;;;;;;44.25;26.00;;;;;;;9.00;88.06;101832.13;1744448;81;25527;-66
2022/11/12 11:53:38;;;;;;;41.40;24.60;;;;;;;9.00;88.15;101840.78;1743804;82;25560;-67
2022/11/12 11:56:16;;;;;;;50.10;30.00;;;;;;;8.98;88.06;101838.34;1742943;82;25614;-65
2022/11/12 11:59:29;;;;;;;48.50;28.90;;;;;;;8.98;88.51;101839.14;1744528;81;25437;-66
2022/11/12 12:02:36;;;;;;;39.45;24.60;;;;;;;9.00;88.21;101838.88;1744483;82;27503;-66
2022/11/12 12:05:42;;;;;;;41.45;24.92;;;;;;;8.98;88.01;101835.64;1743312;82;25657;-67